sensor_id;sensor_type;location;lat;lon;timestamp;pressure;altitude;pressure_sealevel;temperature
61703;BMP280;47622;47.726;3.298;2024-02-21T00:00:47;100121.00;;;4.88
61703;BMP280;47622;47.726;3.298;2024-02-21T00:03:12;100127.75;;;4.73
61703;BMP280;47622;47.726;3.298;2024-02-21T00:05:38;100115.34;;;4.75
61703;BMP280;47622;47.726;3.298;2024-02-21T00:08:04;100114.00;;;4.89
61703;BMP280;47622;47.726;3.298;2024-02-21T00:10:30;100106.94;;;4.84
61703;BMP280;47622;47.726;3.298;2024-02-21T00:12:59;100110.75;;;4.82
61703;BMP280;47622;47.726;3.298;2024-02-21T00:15:25;100090.94;;;4.76
61703;BMP280;47622;47.726;3.298;2024-02-21T00:17:50;100099.53;;;4.65
61703;BMP280;47622;47.726;3.298;2024-02-21T00:20:16;100100.94;;;4.55
61703;BMP280;47622;47.726;3.298;2024-02-21T00:22:43;100108.59;;;4.50
61703;BMP280;47622;47.726;3.298;2024-02-21T00:25:08;100104.09;;;4.46
61703;BMP280;47622;47.726;3.298;2024-02-21T00:27:34;100093.31;;;4.37
61703;BMP280;47622;47.726;3.298;2024-02-21T00:29:59;100086.16;;;4.44
61703;BMP280;47622;47.726;3.298;2024-02-21T00:32:25;100073.03;;;4.51
61703;BMP280;47622;47.726;3.298;2024-02-21T00:34:50;100077.00;;;4.53
61703;BMP280;47622;47.726;3.298;2024-02-21T00:37:16;100075.88;;;4.49
61703;BMP280;47622;47.726;3.298;2024-02-21T00:39:41;100070.41;;;4.34
61703;BMP280;47622;47.726;3.298;2024-02-21T00:42:08;100071.97;;;4.35
61703;BMP280;47622;47.726;3.298;2024-02-21T00:44:33;100069.13;;;4.48
61703;BMP280;47622;47.726;3.298;2024-02-21T00:46:59;100055.28;;;4.59
61703;BMP280;47622;47.726;3.298;2024-02-21T00:49:25;100052.22;;;4.63
61703;BMP280;47622;47.726;3.298;2024-02-21T00:51:50;100047.00;;;4.63
61703;BMP280;47622;47.726;3.298;2024-02-21T00:54:16;100046.56;;;4.66
61703;BMP280;47622;47.726;3.298;2024-02-21T00:56:42;100046.94;;;4.57
61703;BMP280;47622;47.726;3.298;2024-02-21T00:59:08;100050.34;;;4.46
61703;BMP280;47622;47.726;3.298;2024-02-21T01:01:33;100032.47;;;4.33
61703;BMP280;47622;47.726;3.298;2024-02-21T01:03:59;100028.75;;;4.29
61703;BMP280;47622;47.726;3.298;2024-02-21T01:06:25;100027.38;;;4.38
61703;BMP280;47622;47.726;3.298;2024-02-21T01:08:51;100009.28;;;4.43
61703;BMP280;47622;47.726;3.298;2024-02-21T01:11:16;100000.13;;;4.41
61703;BMP280;47622;47.726;3.298;2024-02-21T01:13:42;99979.09;;;4.37
61703;BMP280;47622;47.726;3.298;2024-02-21T01:16:07;99988.97;;;4.40
61703;BMP280;47622;47.726;3.298;2024-02-21T01:18:34;99991.06;;;4.38
61703;BMP280;47622;47.726;3.298;2024-02-21T01:20:59;99988.34;;;4.33
61703;BMP280;47622;47.726;3.298;2024-02-21T01:23:25;99988.81;;;4.30
61703;BMP280;47622;47.726;3.298;2024-02-21T01:25:51;99989.28;;;4.27
61703;BMP280;47622;47.726;3.298;2024-02-21T01:28:17;99982.69;;;4.36
61703;BMP280;47622;47.726;3.298;2024-02-21T01:30:43;99986.31;;;4.35
61703;BMP280;47622;47.726;3.298;2024-02-21T01:33:08;99981.00;;;4.30
61703;BMP280;47622;47.726;3.298;2024-02-21T01:35:35;99979.34;;;4.24
61703;BMP280;47622;47.726;3.298;2024-02-21T01:38:01;99963.81;;;4.12
61703;BMP280;47622;47.726;3.298;2024-02-21T01:40:26;99969.13;;;4.17
61703;BMP280;47622;47.726;3.298;2024-02-21T01:42:55;99962.47;;;4.10
61703;BMP280;47622;47.726;3.298;2024-02-21T01:45:21;99957.97;;;4.05
61703;BMP280;47622;47.726;3.298;2024-02-21T01:47:47;99957.09;;;3.99
61703;BMP280;47622;47.726;3.298;2024-02-21T01:50:14;99966.66;;;3.99
61703;BMP280;47622;47.726;3.298;2024-02-21T01:52:40;99975.97;;;3.95
61703;BMP280;47622;47.726;3.298;2024-02-21T01:55:06;99968.97;;;3.84
61703;BMP280;47622;47.726;3.298;2024-02-21T01:57:33;99981.13;;;3.83
61703;BMP280;47622;47.726;3.298;2024-02-21T01:59:59;99975.28;;;3.76
61703;BMP280;47622;47.726;3.298;2024-02-21T02:02:25;99962.91;;;3.78
61703;BMP280;47622;47.726;3.298;2024-02-21T02:04:51;99967.84;;;3.80
61703;BMP280;47622;47.726;3.298;2024-02-21T02:07:17;99961.88;;;3.79
61703;BMP280;47622;47.726;3.298;2024-02-21T02:09:43;99955.13;;;3.78
61703;BMP280;47622;47.726;3.298;2024-02-21T02:12:09;99952.72;;;3.76
61703;BMP280;47622;47.726;3.298;2024-02-21T02:14:34;99946.69;;;3.71
61703;BMP280;47622;47.726;3.298;2024-02-21T02:17:00;99944.16;;;3.76
61703;BMP280;47622;47.726;3.298;2024-02-21T02:19:25;99935.47;;;3.82
61703;BMP280;47622;47.726;3.298;2024-02-21T02:21:54;99929.38;;;3.88
61703;BMP280;47622;47.726;3.298;2024-02-21T02:24:24;99931.75;;;3.90
61703;BMP280;47622;47.726;3.298;2024-02-21T02:26:49;99924.00;;;3.78
61703;BMP280;47622;47.726;3.298;2024-02-21T02:29:15;99928.59;;;3.76
61703;BMP280;47622;47.726;3.298;2024-02-21T02:31:42;99924.81;;;3.67
61703;BMP280;47622;47.726;3.298;2024-02-21T02:34:07;99935.53;;;3.59
61703;BMP280;47622;47.726;3.298;2024-02-21T02:36:33;99952.31;;;3.56
61703;BMP280;47622;47.726;3.298;2024-02-21T02:38:59;99938.81;;;3.54
61703;BMP280;47622;47.726;3.298;2024-02-21T02:41:25;99944.78;;;3.55
61703;BMP280;47622;47.726;3.298;2024-02-21T02:43:50;99931.81;;;3.55
61703;BMP280;47622;47.726;3.298;2024-02-21T02:46:16;99935.53;;;3.59
61703;BMP280;47622;47.726;3.298;2024-02-21T02:48:41;99922.91;;;3.50
61703;BMP280;47622;47.726;3.298;2024-02-21T02:51:07;99915.22;;;3.56
61703;BMP280;47622;47.726;3.298;2024-02-21T02:53:33;99920.41;;;3.56
61703;BMP280;47622;47.726;3.298;2024-02-21T02:56:01;99912.31;;;3.64
61703;BMP280;47622;47.726;3.298;2024-02-21T02:58:27;99890.00;;;3.63
61703;BMP280;47622;47.726;3.298;2024-02-21T03:00:53;99898.88;;;3.67
61703;BMP280;47622;47.726;3.298;2024-02-21T03:03:19;99891.09;;;3.67
61703;BMP280;47622;47.726;3.298;2024-02-21T03:05:45;99898.19;;;3.71
61703;BMP280;47622;47.726;3.298;2024-02-21T03:08:11;99904.97;;;3.61
61703;BMP280;47622;47.726;3.298;2024-02-21T03:10:36;99894.50;;;3.56
61703;BMP280;47622;47.726;3.298;2024-02-21T03:13:02;99881.44;;;3.50
61703;BMP280;47622;47.726;3.298;2024-02-21T03:15:28;99874.69;;;3.49
61703;BMP280;47622;47.726;3.298;2024-02-21T03:17:54;99873.75;;;3.56
61703;BMP280;47622;47.726;3.298;2024-02-21T03:20:20;99871.84;;;3.63
61703;BMP280;47622;47.726;3.298;2024-02-21T03:22:45;99873.97;;;3.66
61703;BMP280;47622;47.726;3.298;2024-02-21T03:25:11;99863.59;;;3.66
61703;BMP280;47622;47.726;3.298;2024-02-21T03:27:39;99854.34;;;3.70
61703;BMP280;47622;47.726;3.298;2024-02-21T03:30:05;99849.44;;;3.85
61703;BMP280;47622;47.726;3.298;2024-02-21T03:32:30;99859.25;;;3.83
61703;BMP280;47622;47.726;3.298;2024-02-21T03:34:56;99865.50;;;3.70
61703;BMP280;47622;47.726;3.298;2024-02-21T03:37:22;99864.06;;;3.63
61703;BMP280;47622;47.726;3.298;2024-02-21T03:39:47;99859.00;;;3.56
61703;BMP280;47622;47.726;3.298;2024-02-21T03:42:14;99851.91;;;3.52
61703;BMP280;47622;47.726;3.298;2024-02-21T03:44:40;99842.66;;;3.56
61703;BMP280;47622;47.726;3.298;2024-02-21T03:47:06;99839.25;;;3.67
61703;BMP280;47622;47.726;3.298;2024-02-21T03:49:31;99837.56;;;3.61
61703;BMP280;47622;47.726;3.298;2024-02-21T03:51:57;99837.66;;;3.66
61703;BMP280;47622;47.726;3.298;2024-02-21T03:54:22;99823.13;;;3.65
61703;BMP280;47622;47.726;3.298;2024-02-21T03:56:48;99816.28;;;3.59
61703;BMP280;47622;47.726;3.298;2024-02-21T03:59:14;99806.53;;;3.49
61703;BMP280;47622;47.726;3.298;2024-02-21T04:01:39;99804.63;;;3.44
61703;BMP280;47622;47.726;3.298;2024-02-21T04:04:05;99809.34;;;3.47
61703;BMP280;47622;47.726;3.298;2024-02-21T04:06:31;99817.03;;;3.42
61703;BMP280;47622;47.726;3.298;2024-02-21T04:08:57;99817.94;;;3.36
61703;BMP280;47622;47.726;3.298;2024-02-21T04:11:22;99825.38;;;3.33
61703;BMP280;47622;47.726;3.298;2024-02-21T04:13:48;99817.25;;;3.29
61703;BMP280;47622;47.726;3.298;2024-02-21T04:16:16;99810.06;;;3.31
61703;BMP280;47622;47.726;3.298;2024-02-21T04:18:42;99789.53;;;3.30
61703;BMP280;47622;47.726;3.298;2024-02-21T04:21:09;99798.56;;;3.27
61703;BMP280;47622;47.726;3.298;2024-02-21T04:23:35;99797.66;;;3.33
61703;BMP280;47622;47.726;3.298;2024-02-21T04:26:01;99801.25;;;3.32
61703;BMP280;47622;47.726;3.298;2024-02-21T04:28:26;99788.84;;;3.34
61703;BMP280;47622;47.726;3.298;2024-02-21T04:30:52;99779.03;;;3.48
61703;BMP280;47622;47.726;3.298;2024-02-21T04:33:18;99775.06;;;3.45
61703;BMP280;47622;47.726;3.298;2024-02-21T04:35:43;99774.66;;;3.37
61703;BMP280;47622;47.726;3.298;2024-02-21T04:38:09;99775.72;;;3.24
61703;BMP280;47622;47.726;3.298;2024-02-21T04:40:36;99762.22;;;3.22
61703;BMP280;47622;47.726;3.298;2024-02-21T04:43:02;99767.69;;;3.37
61703;BMP280;47622;47.726;3.298;2024-02-21T04:45:27;99765.63;;;3.39
61703;BMP280;47622;47.726;3.298;2024-02-21T04:47:53;99767.81;;;3.31
61703;BMP280;47622;47.726;3.298;2024-02-21T04:50:19;99771.88;;;3.27
61703;BMP280;47622;47.726;3.298;2024-02-21T04:52:44;99782.59;;;3.18
61703;BMP280;47622;47.726;3.298;2024-02-21T04:55:10;99773.72;;;3.14
61703;BMP280;47622;47.726;3.298;2024-02-21T04:57:36;99776.75;;;3.11
61703;BMP280;47622;47.726;3.298;2024-02-21T05:00:01;99763.03;;;3.11
61703;BMP280;47622;47.726;3.298;2024-02-21T05:02:28;99773.72;;;3.14
61703;BMP280;47622;47.726;3.298;2024-02-21T05:04:55;99767.84;;;3.19
61703;BMP280;47622;47.726;3.298;2024-02-21T05:07:20;99766.38;;;3.23
61703;BMP280;47622;47.726;3.298;2024-02-21T05:09:46;99760.81;;;3.31
61703;BMP280;47622;47.726;3.298;2024-02-21T05:12:12;99768.91;;;3.46
61703;BMP280;47622;47.726;3.298;2024-02-21T05:14:37;99768.50;;;3.55
61703;BMP280;47622;47.726;3.298;2024-02-21T05:17:04;99768.59;;;3.60
61703;BMP280;47622;47.726;3.298;2024-02-21T05:19:29;99769.13;;;3.62
61703;BMP280;47622;47.726;3.298;2024-02-21T05:21:55;99773.44;;;3.56
61703;BMP280;47622;47.726;3.298;2024-02-21T05:24:21;99774.16;;;3.52
61703;BMP280;47622;47.726;3.298;2024-02-21T05:26:46;99764.09;;;3.55
61703;BMP280;47622;47.726;3.298;2024-02-21T05:29:12;99766.94;;;3.54
61703;BMP280;47622;47.726;3.298;2024-02-21T05:34:16;99749.69;;;3.76
61703;BMP280;47622;47.726;3.298;2024-02-21T05:36:41;99747.94;;;3.65
61703;BMP280;47622;47.726;3.298;2024-02-21T05:39:07;99751.22;;;3.60
61703;BMP280;47622;47.726;3.298;2024-02-21T05:41:32;99738.19;;;3.55
61703;BMP280;47622;47.726;3.298;2024-02-21T05:43:58;99737.72;;;3.58
61703;BMP280;47622;47.726;3.298;2024-02-21T05:46:23;99726.31;;;3.42
61703;BMP280;47622;47.726;3.298;2024-02-21T05:48:49;99725.38;;;3.48
61703;BMP280;47622;47.726;3.298;2024-02-21T05:51:15;99708.81;;;3.49
61703;BMP280;47622;47.726;3.298;2024-02-21T05:53:41;99704.72;;;3.54
61703;BMP280;47622;47.726;3.298;2024-02-21T05:56:13;99698.16;;;3.63
61703;BMP280;47622;47.726;3.298;2024-02-21T05:58:40;99689.78;;;3.61
61703;BMP280;47622;47.726;3.298;2024-02-21T06:01:06;99685.09;;;3.58
61703;BMP280;47622;47.726;3.298;2024-02-21T06:03:34;99686.75;;;3.64
61703;BMP280;47622;47.726;3.298;2024-02-21T06:06:01;99683.81;;;3.60
61703;BMP280;47622;47.726;3.298;2024-02-21T06:08:27;99677.94;;;3.65
61703;BMP280;47622;47.726;3.298;2024-02-21T06:10:53;99679.66;;;3.76
61703;BMP280;47622;47.726;3.298;2024-02-21T06:13:20;99678.81;;;3.87
61703;BMP280;47622;47.726;3.298;2024-02-21T06:15:49;99670.56;;;3.90
61703;BMP280;47622;47.726;3.298;2024-02-21T06:18:17;99676.78;;;3.89
61703;BMP280;47622;47.726;3.298;2024-02-21T06:20:42;99667.13;;;3.85
61703;BMP280;47622;47.726;3.298;2024-02-21T06:23:08;99681.03;;;3.95
61703;BMP280;47622;47.726;3.298;2024-02-21T06:25:34;99673.75;;;3.97
61703;BMP280;47622;47.726;3.298;2024-02-21T06:27:59;99675.41;;;4.03
61703;BMP280;47622;47.726;3.298;2024-02-21T06:30:25;99659.47;;;4.12
61703;BMP280;47622;47.726;3.298;2024-02-21T06:32:51;99657.97;;;4.16
61703;BMP280;47622;47.726;3.298;2024-02-21T06:35:17;99646.00;;;4.15
61703;BMP280;47622;47.726;3.298;2024-02-21T06:37:43;99648.59;;;4.15
61703;BMP280;47622;47.726;3.298;2024-02-21T06:40:10;99642.34;;;4.11
61703;BMP280;47622;47.726;3.298;2024-02-21T06:42:36;99633.19;;;4.08
61703;BMP280;47622;47.726;3.298;2024-02-21T06:45:02;99630.22;;;3.99
61703;BMP280;47622;47.726;3.298;2024-02-21T06:47:27;99635.19;;;4.01
61703;BMP280;47622;47.726;3.298;2024-02-21T06:49:53;99630.06;;;4.06
61703;BMP280;47622;47.726;3.298;2024-02-21T06:52:19;99632.50;;;4.13
61703;BMP280;47622;47.726;3.298;2024-02-21T06:54:49;99619.72;;;4.28
61703;BMP280;47622;47.726;3.298;2024-02-21T06:57:14;99627.34;;;4.18
61703;BMP280;47622;47.726;3.298;2024-02-21T06:59:41;99614.25;;;4.08
61703;BMP280;47622;47.726;3.298;2024-02-21T07:02:07;99616.84;;;4.08
61703;BMP280;47622;47.726;3.298;2024-02-21T07:04:33;99622.03;;;4.08
61703;BMP280;47622;47.726;3.298;2024-02-21T07:06:58;99619.28;;;4.14
61703;BMP280;47622;47.726;3.298;2024-02-21T07:09:24;99613.88;;;4.16
61703;BMP280;47622;47.726;3.298;2024-02-21T07:11:50;99610.03;;;4.23
61703;BMP280;47622;47.726;3.298;2024-02-21T07:14:15;99611.38;;;4.26
61703;BMP280;47622;47.726;3.298;2024-02-21T07:16:41;99617.25;;;4.38
61703;BMP280;47622;47.726;3.298;2024-02-21T07:19:07;99606.66;;;4.45
61703;BMP280;47622;47.726;3.298;2024-02-21T07:21:33;99599.72;;;4.50
61703;BMP280;47622;47.726;3.298;2024-02-21T07:23:58;99594.06;;;4.53
61703;BMP280;47622;47.726;3.298;2024-02-21T07:26:24;99595.63;;;4.54
61703;BMP280;47622;47.726;3.298;2024-02-21T07:28:50;99604.47;;;4.58
61703;BMP280;47622;47.726;3.298;2024-02-21T07:31:16;99604.03;;;4.67
61703;BMP280;47622;47.726;3.298;2024-02-21T07:33:42;99597.28;;;4.66
61703;BMP280;47622;47.726;3.298;2024-02-21T07:36:09;99606.25;;;4.75
61703;BMP280;47622;47.726;3.298;2024-02-21T07:38:35;99612.47;;;4.79
61703;BMP280;47622;47.726;3.298;2024-02-21T07:41:01;99594.34;;;4.84
61703;BMP280;47622;47.726;3.298;2024-02-21T07:43:26;99589.25;;;4.94
61703;BMP280;47622;47.726;3.298;2024-02-21T07:45:52;99590.31;;;4.98
61703;BMP280;47622;47.726;3.298;2024-02-21T07:48:21;99586.75;;;5.04
61703;BMP280;47622;47.726;3.298;2024-02-21T07:50:52;99592.00;;;5.09
61703;BMP280;47622;47.726;3.298;2024-02-21T07:53:17;99596.19;;;5.15
61703;BMP280;47622;47.726;3.298;2024-02-21T07:55:43;99591.59;;;5.23
61703;BMP280;47622;47.726;3.298;2024-02-21T07:58:09;99591.59;;;5.23
61703;BMP280;47622;47.726;3.298;2024-02-21T08:00:34;99591.03;;;5.21
61703;BMP280;47622;47.726;3.298;2024-02-21T08:03:00;99586.94;;;5.30
61703;BMP280;47622;47.726;3.298;2024-02-21T08:05:25;99598.22;;;5.40
61703;BMP280;47622;47.726;3.298;2024-02-21T08:07:51;99600.09;;;5.50
61703;BMP280;47622;47.726;3.298;2024-02-21T08:10:16;99590.78;;;5.54
61703;BMP280;47622;47.726;3.298;2024-02-21T08:12:42;99585.06;;;5.62
61703;BMP280;47622;47.726;3.298;2024-02-21T08:15:08;99590.81;;;5.64
61703;BMP280;47622;47.726;3.298;2024-02-21T08:17:36;99592.66;;;5.69
61703;BMP280;47622;47.726;3.298;2024-02-21T08:20:03;99583.06;;;5.75
61703;BMP280;47622;47.726;3.298;2024-02-21T08:22:29;99572.16;;;5.78
61703;BMP280;47622;47.726;3.298;2024-02-21T08:24:55;99572.75;;;5.90
61703;BMP280;47622;47.726;3.298;2024-02-21T08:27:21;99571.72;;;5.91
61703;BMP280;47622;47.726;3.298;2024-02-21T08:29:46;99578.75;;;5.95
61703;BMP280;47622;47.726;3.298;2024-02-21T08:32:12;99571.75;;;6.01
61703;BMP280;47622;47.726;3.298;2024-02-21T08:34:37;99571.53;;;6.03
61703;BMP280;47622;47.726;3.298;2024-02-21T08:37:03;99569.69;;;6.08
61703;BMP280;47622;47.726;3.298;2024-02-21T08:39:29;99564.00;;;6.16
61703;BMP280;47622;47.726;3.298;2024-02-21T08:41:56;99581.72;;;6.24
61703;BMP280;47622;47.726;3.298;2024-02-21T08:44:27;99578.06;;;6.20
61703;BMP280;47622;47.726;3.298;2024-02-21T08:46:53;99566.56;;;6.11
61703;BMP280;47622;47.726;3.298;2024-02-21T08:49:18;99568.44;;;6.21
61703;BMP280;47622;47.726;3.298;2024-02-21T08:51:44;99547.34;;;6.22
61703;BMP280;47622;47.726;3.298;2024-02-21T08:54:10;99537.44;;;6.19
61703;BMP280;47622;47.726;3.298;2024-02-21T08:56:36;99543.75;;;6.28
61703;BMP280;47622;47.726;3.298;2024-02-21T08:59:02;99542.72;;;6.40
61703;BMP280;47622;47.726;3.298;2024-02-21T09:01:29;99534.13;;;6.39
61703;BMP280;47622;47.726;3.298;2024-02-21T09:03:54;99531.00;;;6.42
61703;BMP280;47622;47.726;3.298;2024-02-21T09:06:22;99544.78;;;6.48
61703;BMP280;47622;47.726;3.298;2024-02-21T09:08:48;99527.63;;;6.42
61703;BMP280;47622;47.726;3.298;2024-02-21T09:11:13;99526.31;;;6.49
61703;BMP280;47622;47.726;3.298;2024-02-21T09:13:39;99526.59;;;6.58
61703;BMP280;47622;47.726;3.298;2024-02-21T09:16:04;99510.44;;;6.56
61703;BMP280;47622;47.726;3.298;2024-02-21T09:18:32;99515.66;;;6.56
61703;BMP280;47622;47.726;3.298;2024-02-21T09:20:57;99518.75;;;6.48
61703;BMP280;47622;47.726;3.298;2024-02-21T09:23:26;99509.38;;;6.52
61703;BMP280;47622;47.726;3.298;2024-02-21T09:25:52;99515.13;;;6.59
61703;BMP280;47622;47.726;3.298;2024-02-21T09:28:18;99513.56;;;6.58
61703;BMP280;47622;47.726;3.298;2024-02-21T09:30:44;99506.81;;;6.67
61703;BMP280;47622;47.726;3.298;2024-02-21T09:33:10;99500.03;;;6.76
61703;BMP280;47622;47.726;3.298;2024-02-21T09:35:36;99497.66;;;6.95
61703;BMP280;47622;47.726;3.298;2024-02-21T09:38:02;99495.53;;;7.07
61703;BMP280;47622;47.726;3.298;2024-02-21T09:40:28;99483.31;;;7.03
61703;BMP280;47622;47.726;3.298;2024-02-21T09:43:03;99481.72;;;7.22
61703;BMP280;47622;47.726;3.298;2024-02-21T09:45:38;99473.84;;;7.27
61703;BMP280;47622;47.726;3.298;2024-02-21T09:50:40;99460.50;;;7.39
61703;BMP280;47622;47.726;3.298;2024-02-21T09:53:09;99462.84;;;7.51
61703;BMP280;47622;47.726;3.298;2024-02-21T09:55:35;99451.34;;;7.52
61703;BMP280;47622;47.726;3.298;2024-02-21T09:58:05;99456.50;;;7.67
61703;BMP280;47622;47.726;3.298;2024-02-21T10:00:31;99442.69;;;7.66
61703;BMP280;47622;47.726;3.298;2024-02-21T10:02:58;99453.81;;;7.82
61703;BMP280;47622;47.726;3.298;2024-02-21T10:05:24;99458.13;;;8.02
61703;BMP280;47622;47.726;3.298;2024-02-21T10:07:51;99459.34;;;8.15
61703;BMP280;47622;47.726;3.298;2024-02-21T10:10:17;99442.16;;;8.38
61703;BMP280;47622;47.726;3.298;2024-02-21T10:12:52;99452.25;;;8.49
61703;BMP280;47622;47.726;3.298;2024-02-21T10:15:23;99454.75;;;8.65
61703;BMP280;47622;47.726;3.298;2024-02-21T10:18:00;99444.56;;;8.87
61703;BMP280;47622;47.726;3.298;2024-02-21T10:20:27;99444.91;;;9.04
61703;BMP280;47622;47.726;3.298;2024-02-21T10:23:02;99433.41;;;9.05
61703;BMP280;47622;47.726;3.298;2024-02-21T10:25:33;99438.31;;;9.31
61703;BMP280;47622;47.726;3.298;2024-02-21T10:27:59;99428.78;;;9.40
61703;BMP280;47622;47.726;3.298;2024-02-21T10:30:24;99426.59;;;9.28
61703;BMP280;47622;47.726;3.298;2024-02-21T10:32:51;99428.72;;;9.26
61703;BMP280;47622;47.726;3.298;2024-02-21T10:35:27;99420.34;;;9.24
61703;BMP280;47622;47.726;3.298;2024-02-21T10:37:55;99418.91;;;9.37
61703;BMP280;47622;47.726;3.298;2024-02-21T10:40:28;99414.66;;;9.41
61703;BMP280;47622;47.726;3.298;2024-02-21T10:42:58;99410.41;;;9.26
61703;BMP280;47622;47.726;3.298;2024-02-21T10:45:45;99407.72;;;9.31
61703;BMP280;47622;47.726;3.298;2024-02-21T10:48:15;99405.75;;;9.42
61703;BMP280;47622;47.726;3.298;2024-02-21T10:50:53;99403.16;;;9.42
61703;BMP280;47622;47.726;3.298;2024-02-21T10:53:44;99397.03;;;9.65
61703;BMP280;47622;47.726;3.298;2024-02-21T10:56:22;99402.25;;;9.84
61703;BMP280;47622;47.726;3.298;2024-02-21T10:58:50;99397.66;;;9.95
61703;BMP280;47622;47.726;3.298;2024-02-21T11:01:18;99383.16;;;9.97
61703;BMP280;47622;47.726;3.298;2024-02-21T11:03:45;99383.41;;;10.15
61703;BMP280;47622;47.726;3.298;2024-02-21T11:06:12;99380.84;;;10.28
61703;BMP280;47622;47.726;3.298;2024-02-21T11:08:38;99366.25;;;10.36
61703;BMP280;47622;47.726;3.298;2024-02-21T11:11:05;99360.94;;;10.55
61703;BMP280;47622;47.726;3.298;2024-02-21T11:13:37;99346.66;;;10.61
61703;BMP280;47622;47.726;3.298;2024-02-21T11:16:11;99342.84;;;10.67
61703;BMP280;47622;47.726;3.298;2024-02-21T11:18:37;99329.91;;;10.84
61703;BMP280;47622;47.726;3.298;2024-02-21T11:21:03;99349.50;;;11.01
61703;BMP280;47622;47.726;3.298;2024-02-21T11:23:32;99336.00;;;11.30
61703;BMP280;47622;47.726;3.298;2024-02-21T11:26:08;99338.94;;;11.28
61703;BMP280;47622;47.726;3.298;2024-02-21T11:28:34;99332.50;;;11.34
61703;BMP280;47622;47.726;3.298;2024-02-21T11:31:12;99330.31;;;11.14
61703;BMP280;47622;47.726;3.298;2024-02-21T11:33:42;99321.38;;;11.15
61703;BMP280;47622;47.726;3.298;2024-02-21T11:36:10;99323.78;;;11.25
61703;BMP280;47622;47.726;3.298;2024-02-21T11:38:36;99316.31;;;11.41
61703;BMP280;47622;47.726;3.298;2024-02-21T11:41:02;99293.78;;;11.40
61703;BMP280;47622;47.726;3.298;2024-02-21T11:43:28;99278.16;;;11.43
61703;BMP280;47622;47.726;3.298;2024-02-21T11:46:01;99262.41;;;11.43
61703;BMP280;47622;47.726;3.298;2024-02-21T11:48:26;99249.19;;;11.48
61703;BMP280;47622;47.726;3.298;2024-02-21T11:50:56;99266.91;;;11.74
61703;BMP280;47622;47.726;3.298;2024-02-21T11:53:23;99260.94;;;11.91
61703;BMP280;47622;47.726;3.298;2024-02-21T11:55:49;99258.63;;;11.89
61703;BMP280;47622;47.726;3.298;2024-02-21T11:58:16;99244.53;;;11.76
61703;BMP280;47622;47.726;3.298;2024-02-21T12:00:42;99247.88;;;11.68
61703;BMP280;47622;47.726;3.298;2024-02-21T12:03:07;99251.50;;;11.81
61703;BMP280;47622;47.726;3.298;2024-02-21T12:05:34;99242.38;;;11.78
61703;BMP280;47622;47.726;3.298;2024-02-21T12:08:00;99240.69;;;11.91
61703;BMP280;47622;47.726;3.298;2024-02-21T12:10:26;99239.91;;;11.82
61703;BMP280;47622;47.726;3.298;2024-02-21T12:13:08;99227.09;;;11.89
61703;BMP280;47622;47.726;3.298;2024-02-21T12:15:33;99223.38;;;11.90
61703;BMP280;47622;47.726;3.298;2024-02-21T12:17:59;99214.09;;;11.84
61703;BMP280;47622;47.726;3.298;2024-02-21T12:20:25;99212.22;;;11.76
61703;BMP280;47622;47.726;3.298;2024-02-21T12:22:51;99192.31;;;11.83
61703;BMP280;47622;47.726;3.298;2024-02-21T12:25:19;99192.44;;;11.78
61703;BMP280;47622;47.726;3.298;2024-02-21T12:27:48;99194.88;;;11.75
61703;BMP280;47622;47.726;3.298;2024-02-21T12:30:14;99172.97;;;11.71
61703;BMP280;47622;47.726;3.298;2024-02-21T12:32:40;99184.53;;;11.70
61703;BMP280;47622;47.726;3.298;2024-02-21T12:35:07;99177.00;;;11.77
61703;BMP280;47622;47.726;3.298;2024-02-21T12:37:32;99165.56;;;11.90
61703;BMP280;47622;47.726;3.298;2024-02-21T12:39:58;99165.56;;;11.90
61703;BMP280;47622;47.726;3.298;2024-02-21T12:42:24;99157.22;;;11.71
61703;BMP280;47622;47.726;3.298;2024-02-21T12:44:53;99161.22;;;11.77
61703;BMP280;47622;47.726;3.298;2024-02-21T12:47:19;99153.34;;;11.85
61703;BMP280;47622;47.726;3.298;2024-02-21T12:49:49;99157.84;;;11.76
61703;BMP280;47622;47.726;3.298;2024-02-21T12:52:14;99143.31;;;11.79
61703;BMP280;47622;47.726;3.298;2024-02-21T12:54:40;99145.78;;;11.84
61703;BMP280;47622;47.726;3.298;2024-02-21T12:57:06;99148.09;;;11.77
61703;BMP280;47622;47.726;3.298;2024-02-21T12:59:31;99136.72;;;11.50
61703;BMP280;47622;47.726;3.298;2024-02-21T13:01:57;99142.78;;;11.60
61703;BMP280;47622;47.726;3.298;2024-02-21T13:04:22;99139.88;;;11.70
61703;BMP280;47622;47.726;3.298;2024-02-21T13:06:49;99131.84;;;11.75
61703;BMP280;47622;47.726;3.298;2024-02-21T13:09:14;99115.97;;;11.71
61703;BMP280;47622;47.726;3.298;2024-02-21T13:11:41;99114.53;;;11.74
61703;BMP280;47622;47.726;3.298;2024-02-21T13:14:07;99103.56;;;11.63
61703;BMP280;47622;47.726;3.298;2024-02-21T13:16:32;99097.22;;;11.64
61703;BMP280;47622;47.726;3.298;2024-02-21T13:19:05;99092.28;;;11.63
61703;BMP280;47622;47.726;3.298;2024-02-21T13:21:30;99085.97;;;11.72
61703;BMP280;47622;47.726;3.298;2024-02-21T13:23:56;99081.16;;;11.66
61703;BMP280;47622;47.726;3.298;2024-02-21T13:26:22;99084.38;;;11.54
61703;BMP280;47622;47.726;3.298;2024-02-21T13:28:48;99070.00;;;11.51
61703;BMP280;47622;47.726;3.298;2024-02-21T13:31:14;99087.03;;;11.63
61703;BMP280;47622;47.726;3.298;2024-02-21T13:33:42;99062.78;;;11.74
61703;BMP280;47622;47.726;3.298;2024-02-21T13:36:09;99064.47;;;11.62
61703;BMP280;47622;47.726;3.298;2024-02-21T13:38:35;99061.69;;;11.67
61703;BMP280;47622;47.726;3.298;2024-02-21T13:41:00;99065.06;;;11.58
61703;BMP280;47622;47.726;3.298;2024-02-21T13:43:26;99053.03;;;11.49
61703;BMP280;47622;47.726;3.298;2024-02-21T13:45:59;99040.22;;;11.56
61703;BMP280;47622;47.726;3.298;2024-02-21T13:48:25;99027.22;;;11.51
61703;BMP280;47622;47.726;3.298;2024-02-21T13:50:52;99036.81;;;11.55
61703;BMP280;47622;47.726;3.298;2024-02-21T13:53:17;99034.50;;;11.63
61703;BMP280;47622;47.726;3.298;2024-02-21T13:55:46;99033.72;;;11.53
61703;BMP280;47622;47.726;3.298;2024-02-21T13:58:12;99032.31;;;11.65
61703;BMP280;47622;47.726;3.298;2024-02-21T14:00:38;99018.72;;;11.45
61703;BMP280;47622;47.726;3.298;2024-02-21T14:03:04;99016.56;;;11.47
61703;BMP280;47622;47.726;3.298;2024-02-21T14:05:29;99015.31;;;11.53
61703;BMP280;47622;47.726;3.298;2024-02-21T14:07:55;99015.81;;;11.55
61703;BMP280;47622;47.726;3.298;2024-02-21T14:10:22;99015.22;;;11.50
61703;BMP280;47622;47.726;3.298;2024-02-21T14:12:47;99001.88;;;11.38
61703;BMP280;47622;47.726;3.298;2024-02-21T14:15:14;99012.41;;;11.46
61703;BMP280;47622;47.726;3.298;2024-02-21T14:17:39;98987.06;;;11.50